sensor_id;sensor_type;location;lat;lon;timestamp;temperature;humidity
8711;DHT22;4392;47.400;8.062;2022-09-09T00:04:35;19.40;99.90
8711;DHT22;4392;47.400;8.062;2022-09-09T00:09:46;19.40;99.90
8711;DHT22;4392;47.400;8.062;2022-09-09T00:12:36;19.40;99.90
8711;DHT22;4392;47.400;8.062;2022-09-09T00:15:14;19.40;99.90
8711;DHT22;4392;47.400;8.062;2022-09-09T00:23:58;19.30;99.90
8711;DHT22;4392;47.400;8.062;2022-09-09T00:26:38;19.40;99.90
8711;DHT22;4392;47.400;8.062;2022-09-09T00:29:25;19.30;99.90
8711;DHT22;4392;47.400;8.062;2022-09-09T00:32:18;19.30;99.90
8711;DHT22;4392;47.400;8.062;2022-09-09T00:34:55;19.20;99.90
8711;DHT22;4392;47.400;8.062;2022-09-09T00:37:22;19.30;99.90
8711;DHT22;4392;47.400;8.062;2022-09-09T00:39:59;19.30;99.90
8711;DHT22;4392;47.400;8.062;2022-09-09T00:42:42;19.20;99.90
8711;DHT22;4392;47.400;8.062;2022-09-09T00:48:04;19.20;99.90
8711;DHT22;4392;47.400;8.062;2022-09-09T00:50:49;19.20;99.90
8711;DHT22;4392;47.400;8.062;2022-09-09T00:53:33;19.20;99.90
8711;DHT22;4392;47.400;8.062;2022-09-09T00:58:31;19.30;99.90
8711;DHT22;4392;47.400;8.062;2022-09-09T01:01:12;19.30;99.90
8711;DHT22;4392;47.400;8.062;2022-09-09T01:03:55;19.40;99.90
8711;DHT22;4392;47.400;8.062;2022-09-09T01:06:31;19.20;99.90
8711;DHT22;4392;47.400;8.062;2022-09-09T01:17:22;18.80;99.90
8711;DHT22;4392;47.400;8.062;2022-09-09T01:28:17;19.10;99.90
8711;DHT22;4392;47.400;8.062;2022-09-09T01:30:45;19.20;99.90
8711;DHT22;4392;47.400;8.062;2022-09-09T01:33:16;19.30;99.90
8711;DHT22;4392;47.400;8.062;2022-09-09T01:36:08;19.30;99.90
8711;DHT22;4392;47.400;8.062;2022-09-09T01:38:36;19.30;99.90
8711;DHT22;4392;47.400;8.062;2022-09-09T01:41:02;19.30;99.90
8711;DHT22;4392;47.400;8.062;2022-09-09T01:43:29;19.30;99.90
8711;DHT22;4392;47.400;8.062;2022-09-09T01:45:59;19.30;99.90
8711;DHT22;4392;47.400;8.062;2022-09-09T01:48:27;19.30;99.90
8711;DHT22;4392;47.400;8.062;2022-09-09T01:50:52;19.30;99.90
8711;DHT22;4392;47.400;8.062;2022-09-09T01:53:20;19.30;99.90
8711;DHT22;4392;47.400;8.062;2022-09-09T02:01:15;19.30;99.90
8711;DHT22;4392;47.400;8.062;2022-09-09T02:03:49;19.30;99.90
8711;DHT22;4392;47.400;8.062;2022-09-09T02:06:36;19.30;99.90
8711;DHT22;4392;47.400;8.062;2022-09-09T02:09:05;19.30;99.90
8711;DHT22;4392;47.400;8.062;2022-09-09T02:11:32;19.30;99.90
8711;DHT22;4392;47.400;8.062;2022-09-09T02:14:11;19.20;99.90
8711;DHT22;4392;47.400;8.062;2022-09-09T02:16:42;19.20;99.90
8711;DHT22;4392;47.400;8.062;2022-09-09T02:19:18;19.20;99.90
8711;DHT22;4392;47.400;8.062;2022-09-09T02:21:50;19.30;99.90
8711;DHT22;4392;47.400;8.062;2022-09-09T02:24:16;19.10;99.90
8711;DHT22;4392;47.400;8.062;2022-09-09T02:26:51;19.10;99.90
8711;DHT22;4392;47.400;8.062;2022-09-09T02:29:22;19.30;99.90
8711;DHT22;4392;47.400;8.062;2022-09-09T02:31:49;19.30;99.90
8711;DHT22;4392;47.400;8.062;2022-09-09T02:34:23;19.30;99.90
8711;DHT22;4392;47.400;8.062;2022-09-09T02:36:53;19.30;99.90
8711;DHT22;4392;47.400;8.062;2022-09-09T02:39:19;19.30;99.90
8711;DHT22;4392;47.400;8.062;2022-09-09T02:41:45;19.30;99.90
8711;DHT22;4392;47.400;8.062;2022-09-09T02:44:16;19.30;99.90
8711;DHT22;4392;47.400;8.062;2022-09-09T02:47:19;19.30;99.90
8711;DHT22;4392;47.400;8.062;2022-09-09T02:53:09;19.00;99.90
8711;DHT22;4392;47.400;8.062;2022-09-09T02:58:20;19.00;99.90
8711;DHT22;4392;47.400;8.062;2022-09-09T03:00:48;19.00;99.90
8711;DHT22;4392;47.400;8.062;2022-09-09T03:03:15;19.00;99.90
8711;DHT22;4392;47.400;8.062;2022-09-09T03:05:45;19.00;99.90
8711;DHT22;4392;47.400;8.062;2022-09-09T03:08:11;19.00;99.90
8711;DHT22;4392;47.400;8.062;2022-09-09T03:10:38;19.10;99.90
8711;DHT22;4392;47.400;8.062;2022-09-09T03:13:04;19.00;99.90
8711;DHT22;4392;47.400;8.062;2022-09-09T03:15:32;18.90;99.90
8711;DHT22;4392;47.400;8.062;2022-09-09T03:18:01;19.00;99.90
8711;DHT22;4392;47.400;8.062;2022-09-09T03:20:29;19.00;99.90
8711;DHT22;4392;47.400;8.062;2022-09-09T03:22:55;19.00;99.90
8711;DHT22;4392;47.400;8.062;2022-09-09T03:25:22;19.00;99.90
8711;DHT22;4392;47.400;8.062;2022-09-09T03:27:53;19.00;99.90
8711;DHT22;4392;47.400;8.062;2022-09-09T03:30:27;18.80;99.90
8711;DHT22;4392;47.400;8.062;2022-09-09T03:32:54;18.90;99.90
8711;DHT22;4392;47.400;8.062;2022-09-09T03:35:20;19.00;99.90
8711;DHT22;4392;47.400;8.062;2022-09-09T03:37:46;19.10;99.90
8711;DHT22;4392;47.400;8.062;2022-09-09T03:40:13;19.10;99.90
8711;DHT22;4392;47.400;8.062;2022-09-09T03:42:39;19.10;99.90
8711;DHT22;4392;47.400;8.062;2022-09-09T03:45:07;19.10;99.90
8711;DHT22;4392;47.400;8.062;2022-09-09T03:47:35;18.90;99.90
8711;DHT22;4392;47.400;8.062;2022-09-09T03:50:00;19.00;99.90
8711;DHT22;4392;47.400;8.062;2022-09-09T03:52:26;19.00;99.90
8711;DHT22;4392;47.400;8.062;2022-09-09T03:54:53;19.10;99.90
8711;DHT22;4392;47.400;8.062;2022-09-09T03:57:20;19.10;99.90
8711;DHT22;4392;47.400;8.062;2022-09-09T03:59:47;19.10;99.90
8711;DHT22;4392;47.400;8.062;2022-09-09T04:02:12;19.10;99.90
8711;DHT22;4392;47.400;8.062;2022-09-09T04:04:38;19.10;99.90
8711;DHT22;4392;47.400;8.062;2022-09-09T04:07:05;19.10;99.90
8711;DHT22;4392;47.400;8.062;2022-09-09T04:09:32;19.10;99.90
8711;DHT22;4392;47.400;8.062;2022-09-09T04:11:58;19.20;99.90
8711;DHT22;4392;47.400;8.062;2022-09-09T04:14:24;19.20;99.90
8711;DHT22;4392;47.400;8.062;2022-09-09T04:16:54;19.20;99.90
8711;DHT22;4392;47.400;8.062;2022-09-09T04:19:23;19.10;99.90
8711;DHT22;4392;47.400;8.062;2022-09-09T04:21:48;18.90;99.90
8711;DHT22;4392;47.400;8.062;2022-09-09T04:24:17;18.90;99.90
8711;DHT22;4392;47.400;8.062;2022-09-09T04:26:43;19.00;99.90
8711;DHT22;4392;47.400;8.062;2022-09-09T04:29:09;19.00;99.90
8711;DHT22;4392;47.400;8.062;2022-09-09T04:31:35;19.00;99.90
8711;DHT22;4392;47.400;8.062;2022-09-09T04:34:01;19.10;99.90
8711;DHT22;4392;47.400;8.062;2022-09-09T04:36:32;19.00;99.90
8711;DHT22;4392;47.400;8.062;2022-09-09T04:38:58;18.90;99.90
8711;DHT22;4392;47.400;8.062;2022-09-09T04:41:24;18.80;99.90
8711;DHT22;4392;47.400;8.062;2022-09-09T04:43:50;18.90;99.90
8711;DHT22;4392;47.400;8.062;2022-09-09T04:46:15;18.90;99.90
8711;DHT22;4392;47.400;8.062;2022-09-09T04:48:42;19.00;99.90
8711;DHT22;4392;47.400;8.062;2022-09-09T04:51:13;19.00;99.90
8711;DHT22;4392;47.400;8.062;2022-09-09T04:53:39;19.00;99.90
8711;DHT22;4392;47.400;8.062;2022-09-09T04:56:07;19.00;99.90
8711;DHT22;4392;47.400;8.062;2022-09-09T04:58:36;19.00;99.90
8711;DHT22;4392;47.400;8.062;2022-09-09T05:01:10;19.00;99.90
8711;DHT22;4392;47.400;8.062;2022-09-09T05:03:36;18.90;99.90
8711;DHT22;4392;47.400;8.062;2022-09-09T05:06:10;18.80;99.90
8711;DHT22;4392;47.400;8.062;2022-09-09T05:08:41;18.80;99.90
8711;DHT22;4392;47.400;8.062;2022-09-09T05:13:44;18.70;99.90
8711;DHT22;4392;47.400;8.062;2022-09-09T05:16:10;18.70;99.90
8711;DHT22;4392;47.400;8.062;2022-09-09T05:18:42;18.70;99.90
8711;DHT22;4392;47.400;8.062;2022-09-09T05:21:12;18.70;99.90
8711;DHT22;4392;47.400;8.062;2022-09-09T05:23:38;18.70;99.90
8711;DHT22;4392;47.400;8.062;2022-09-09T05:26:05;18.70;99.90
8711;DHT22;4392;47.400;8.062;2022-09-09T05:28:31;18.60;99.90
8711;DHT22;4392;47.400;8.062;2022-09-09T05:30:58;18.50;99.90
8711;DHT22;4392;47.400;8.062;2022-09-09T05:33:25;18.50;99.90
8711;DHT22;4392;47.400;8.062;2022-09-09T05:36:03;18.50;99.90
8711;DHT22;4392;47.400;8.062;2022-09-09T05:38:30;18.50;99.90
8711;DHT22;4392;47.400;8.062;2022-09-09T05:40:56;18.50;99.90
8711;DHT22;4392;47.400;8.062;2022-09-09T05:43:23;18.50;99.90
8711;DHT22;4392;47.400;8.062;2022-09-09T05:45:59;18.50;99.90
8711;DHT22;4392;47.400;8.062;2022-09-09T05:48:30;18.40;99.90
8711;DHT22;4392;47.400;8.062;2022-09-09T05:50:57;18.50;99.90
8711;DHT22;4392;47.400;8.062;2022-09-09T05:53:23;18.50;99.90
8711;DHT22;4392;47.400;8.062;2022-09-09T05:55:48;18.50;99.90
8711;DHT22;4392;47.400;8.062;2022-09-09T05:58:14;18.40;99.90
8711;DHT22;4392;47.400;8.062;2022-09-09T06:00:42;18.40;99.90
8711;DHT22;4392;47.400;8.062;2022-09-09T06:03:12;18.60;99.90
8711;DHT22;4392;47.400;8.062;2022-09-09T06:05:38;18.60;99.90
8711;DHT22;4392;47.400;8.062;2022-09-09T06:08:04;18.50;99.90
8711;DHT22;4392;47.400;8.062;2022-09-09T06:10:29;18.70;99.90
8711;DHT22;4392;47.400;8.062;2022-09-09T06:12:55;18.60;99.90
8711;DHT22;4392;47.400;8.062;2022-09-09T06:15:21;18.60;99.90
8711;DHT22;4392;47.400;8.062;2022-09-09T06:17:47;18.70;99.90
8711;DHT22;4392;47.400;8.062;2022-09-09T06:20:12;18.70;99.90
8711;DHT22;4392;47.400;8.062;2022-09-09T06:22:40;18.70;99.90
8711;DHT22;4392;47.400;8.062;2022-09-09T06:25:08;18.80;99.90
8711;DHT22;4392;47.400;8.062;2022-09-09T06:27:38;18.80;99.90
8711;DHT22;4392;47.400;8.062;2022-09-09T06:30:04;18.70;99.90
8711;DHT22;4392;47.400;8.062;2022-09-09T06:32:30;18.70;99.90
8711;DHT22;4392;47.400;8.062;2022-09-09T06:35:00;18.70;99.90
8711;DHT22;4392;47.400;8.062;2022-09-09T06:37:26;18.80;99.90
8711;DHT22;4392;47.400;8.062;2022-09-09T06:39:54;18.80;99.90
8711;DHT22;4392;47.400;8.062;2022-09-09T06:42:20;18.80;99.90
8711;DHT22;4392;47.400;8.062;2022-09-09T06:44:46;18.90;99.90
8711;DHT22;4392;47.400;8.062;2022-09-09T06:47:12;18.80;99.90
8711;DHT22;4392;47.400;8.062;2022-09-09T06:49:37;18.80;99.90
8711;DHT22;4392;47.400;8.062;2022-09-09T06:52:03;18.80;99.90
8711;DHT22;4392;47.400;8.062;2022-09-09T06:54:29;18.80;99.90
8711;DHT22;4392;47.400;8.062;2022-09-09T06:56:55;18.80;99.90
8711;DHT22;4392;47.400;8.062;2022-09-09T06:59:21;18.80;99.90
8711;DHT22;4392;47.400;8.062;2022-09-09T07:01:46;18.80;99.90
8711;DHT22;4392;47.400;8.062;2022-09-09T07:04:14;18.80;99.90
8711;DHT22;4392;47.400;8.062;2022-09-09T07:06:42;18.80;99.90
8711;DHT22;4392;47.400;8.062;2022-09-09T07:09:13;18.70;99.90
8711;DHT22;4392;47.400;8.062;2022-09-09T07:11:47;18.90;99.90
8711;DHT22;4392;47.400;8.062;2022-09-09T07:14:24;18.80;99.90
8711;DHT22;4392;47.400;8.062;2022-09-09T07:16:50;18.80;99.90
8711;DHT22;4392;47.400;8.062;2022-09-09T07:19:19;18.80;99.90
8711;DHT22;4392;47.400;8.062;2022-09-09T07:21:44;18.80;99.90
8711;DHT22;4392;47.400;8.062;2022-09-09T07:24:10;18.80;99.90
8711;DHT22;4392;47.400;8.062;2022-09-09T07:26:37;18.90;99.90
8711;DHT22;4392;47.400;8.062;2022-09-09T07:29:04;18.90;99.90
8711;DHT22;4392;47.400;8.062;2022-09-09T07:31:33;18.90;99.90
8711;DHT22;4392;47.400;8.062;2022-09-09T07:34:00;18.90;99.90
8711;DHT22;4392;47.400;8.062;2022-09-09T07:36:37;19.00;99.90
8711;DHT22;4392;47.400;8.062;2022-09-09T07:39:06;19.00;99.90
8711;DHT22;4392;47.400;8.062;2022-09-09T07:41:36;19.00;99.90
8711;DHT22;4392;47.400;8.062;2022-09-09T07:44:11;19.00;99.90
8711;DHT22;4392;47.400;8.062;2022-09-09T07:46:38;19.10;99.90
8711;DHT22;4392;47.400;8.062;2022-09-09T07:49:08;19.20;99.90
8711;DHT22;4392;47.400;8.062;2022-09-09T07:51:42;19.20;99.90
8711;DHT22;4392;47.400;8.062;2022-09-09T07:54:10;19.10;99.90
8711;DHT22;4392;47.400;8.062;2022-09-09T07:56:38;19.10;99.90
8711;DHT22;4392;47.400;8.062;2022-09-09T07:59:05;19.20;99.90
8711;DHT22;4392;47.400;8.062;2022-09-09T08:01:40;19.10;99.90
8711;DHT22;4392;47.400;8.062;2022-09-09T08:04:11;19.20;99.90
8711;DHT22;4392;47.400;8.062;2022-09-09T08:06:42;19.30;99.90
8711;DHT22;4392;47.400;8.062;2022-09-09T08:09:08;19.30;99.90
8711;DHT22;4392;47.400;8.062;2022-09-09T08:11:35;19.30;99.90
8711;DHT22;4392;47.400;8.062;2022-09-09T08:14:02;19.40;99.90
8711;DHT22;4392;47.400;8.062;2022-09-09T08:16:30;19.40;99.90
8711;DHT22;4392;47.400;8.062;2022-09-09T08:18:57;19.50;99.90
8711;DHT22;4392;47.400;8.062;2022-09-09T08:21:25;19.40;99.90
8711;DHT22;4392;47.400;8.062;2022-09-09T08:23:56;19.50;99.90
8711;DHT22;4392;47.400;8.062;2022-09-09T08:26:28;19.60;99.90
8711;DHT22;4392;47.400;8.062;2022-09-09T08:28:56;19.60;99.90
8711;DHT22;4392;47.400;8.062;2022-09-09T08:31:30;19.60;99.90
8711;DHT22;4392;47.400;8.062;2022-09-09T08:33:58;19.60;99.90
8711;DHT22;4392;47.400;8.062;2022-09-09T08:36:34;19.70;99.90
8711;DHT22;4392;47.400;8.062;2022-09-09T08:39:01;19.70;99.90
8711;DHT22;4392;47.400;8.062;2022-09-09T08:44:42;19.90;99.90
8711;DHT22;4392;47.400;8.062;2022-09-09T08:49:54;20.10;99.90
8711;DHT22;4392;47.400;8.062;2022-09-09T08:52:36;20.10;99.90
8711;DHT22;4392;47.400;8.062;2022-09-09T08:56:08;20.20;99.90
8711;DHT22;4392;47.400;8.062;2022-09-09T08:58:21;20.60;99.90
8711;DHT22;4392;47.400;8.062;2022-09-09T09:01:02;20.80;99.90
8711;DHT22;4392;47.400;8.062;2022-09-09T09:03:43;20.80;99.90
8711;DHT22;4392;47.400;8.062;2022-09-09T09:07:03;20.80;99.90
8711;DHT22;4392;47.400;8.062;2022-09-09T09:09:53;20.70;99.90
8711;DHT22;4392;47.400;8.062;2022-09-09T09:12:28;20.50;99.90
8711;DHT22;4392;47.400;8.062;2022-09-09T09:14:55;20.50;99.90
8711;DHT22;4392;47.400;8.062;2022-09-09T09:17:26;20.60;99.90
8711;DHT22;4392;47.400;8.062;2022-09-09T09:19:53;20.60;99.90
8711;DHT22;4392;47.400;8.062;2022-09-09T09:27:51;20.70;99.90
8711;DHT22;4392;47.400;8.062;2022-09-09T09:30:21;20.90;99.90
8711;DHT22;4392;47.400;8.062;2022-09-09T09:33:02;21.00;99.90
8711;DHT22;4392;47.400;8.062;2022-09-09T09:35:28;21.00;99.90
8711;DHT22;4392;47.400;8.062;2022-09-09T09:37:54;21.10;99.90
8711;DHT22;4392;47.400;8.062;2022-09-09T09:40:21;21.10;99.90
8711;DHT22;4392;47.400;8.062;2022-09-09T09:42:57;21.10;99.90
8711;DHT22;4392;47.400;8.062;2022-09-09T09:48:12;21.20;99.90
8711;DHT22;4392;47.400;8.062;2022-09-09T09:51:07;21.20;99.90
8711;DHT22;4392;47.400;8.062;2022-09-09T09:53:36;21.20;99.90
8711;DHT22;4392;47.400;8.062;2022-09-09T09:56:05;21.20;99.90
8711;DHT22;4392;47.400;8.062;2022-09-09T09:58:52;21.20;99.90
8711;DHT22;4392;47.400;8.062;2022-09-09T10:01:31;21.30;99.90
8711;DHT22;4392;47.400;8.062;2022-09-09T10:04:23;21.30;99.90
8711;DHT22;4392;47.400;8.062;2022-09-09T10:07:11;21.40;99.90
8711;DHT22;4392;47.400;8.062;2022-09-09T10:09:37;21.40;99.90
8711;DHT22;4392;47.400;8.062;2022-09-09T10:14:52;21.50;99.90
8711;DHT22;4392;47.400;8.062;2022-09-09T10:20:17;21.50;99.90
8711;DHT22;4392;47.400;8.062;2022-09-09T10:22:51;21.50;99.90
8711;DHT22;4392;47.400;8.062;2022-09-09T10:33:54;21.60;99.90
8711;DHT22;4392;47.400;8.062;2022-09-09T10:36:24;21.60;99.90
8711;DHT22;4392;47.400;8.062;2022-09-09T10:42:01;21.70;99.90
8711;DHT22;4392;47.400;8.062;2022-09-09T10:50:39;21.70;99.90
8711;DHT22;4392;47.400;8.062;2022-09-09T10:55:42;21.70;99.90
8711;DHT22;4392;47.400;8.062;2022-09-09T10:58:24;21.70;99.90
8711;DHT22;4392;47.400;8.062;2022-09-09T11:01:00;21.70;99.90
8711;DHT22;4392;47.400;8.062;2022-09-09T11:03:29;21.70;99.90
8711;DHT22;4392;47.400;8.062;2022-09-09T11:06:05;21.70;99.90
8711;DHT22;4392;47.400;8.062;2022-09-09T11:08:38;21.80;99.90
8711;DHT22;4392;47.400;8.062;2022-09-09T11:14:15;21.90;99.90
8711;DHT22;4392;47.400;8.062;2022-09-09T11:17:00;21.90;99.90
8711;DHT22;4392;47.400;8.062;2022-09-09T11:21:53;22.00;99.90
8711;DHT22;4392;47.400;8.062;2022-09-09T11:24:29;22.00;99.90
8711;DHT22;4392;47.400;8.062;2022-09-09T11:27:19;22.00;99.90
8711;DHT22;4392;47.400;8.062;2022-09-09T11:35:42;21.80;90.10
8711;DHT22;4392;47.400;8.062;2022-09-09T11:38:18;21.70;90.20
8711;DHT22;4392;47.400;8.062;2022-09-09T11:40:45;21.80;86.60
8711;DHT22;4392;47.400;8.062;2022-09-09T11:43:19;21.80;85.00
8711;DHT22;4392;47.400;8.062;2022-09-09T11:45:55;21.80;88.70
8711;DHT22;4392;47.400;8.062;2022-09-09T11:48:37;21.80;90.40
8711;DHT22;4392;47.400;8.062;2022-09-09T11:51:11;21.80;86.20
8711;DHT22;4392;47.400;8.062;2022-09-09T11:53:57;21.90;90.50
8711;DHT22;4392;47.400;8.062;2022-09-09T11:56:32;22.00;91.60
8711;DHT22;4392;47.400;8.062;2022-09-09T12:01:50;21.90;87.80
8711;DHT22;4392;47.400;8.062;2022-09-09T12:04:33;22.00;82.00
8711;DHT22;4392;47.400;8.062;2022-09-09T12:07:03;21.90;82.30
8711;DHT22;4392;47.400;8.062;2022-09-09T12:09:41;21.90;79.00
8711;DHT22;4392;47.400;8.062;2022-09-09T12:28:11;21.90;72.90
8711;DHT22;4392;47.400;8.062;2022-09-09T12:33:21;22.00;72.30
8711;DHT22;4392;47.400;8.062;2022-09-09T12:35:55;21.90;69.60
8711;DHT22;4392;47.400;8.062;2022-09-09T12:38:36;22.00;68.80
8711;DHT22;4392;47.400;8.062;2022-09-09T12:41:02;22.00;71.30
8711;DHT22;4392;47.400;8.062;2022-09-09T12:43:29;21.90;69.20
8711;DHT22;4392;47.400;8.062;2022-09-09T12:46:36;22.00;69.10
8711;DHT22;4392;47.400;8.062;2022-09-09T12:49:02;22.10;67.40
8711;DHT22;4392;47.400;8.062;2022-09-09T12:51:31;22.10;67.80
8711;DHT22;4392;47.400;8.062;2022-09-09T12:53:59;22.10;65.90
8711;DHT22;4392;47.400;8.062;2022-09-09T12:56:31;22.20;66.80
8711;DHT22;4392;47.400;8.062;2022-09-09T12:58:58;22.20;65.80
8711;DHT22;4392;47.400;8.062;2022-09-09T13:01:30;22.30;65.50
8711;DHT22;4392;47.400;8.062;2022-09-09T13:03:56;22.30;69.60
8711;DHT22;4392;47.400;8.062;2022-09-09T13:06:30;22.40;69.40
8711;DHT22;4392;47.400;8.062;2022-09-09T13:08:59;22.50;63.80
8711;DHT22;4392;47.400;8.062;2022-09-09T13:11:31;22.50;63.60
8711;DHT22;4392;47.400;8.062;2022-09-09T13:14:48;22.50;65.00
8711;DHT22;4392;47.400;8.062;2022-09-09T13:17:26;22.60;61.60
8711;DHT22;4392;47.400;8.062;2022-09-09T13:19:54;22.70;64.90
8711;DHT22;4392;47.400;8.062;2022-09-09T13:22:35;22.70;60.60
8711;DHT22;4392;47.400;8.062;2022-09-09T13:27:39;22.90;66.10
8711;DHT22;4392;47.400;8.062;2022-09-09T13:35:27;23.00;63.70
8711;DHT22;4392;47.400;8.062;2022-09-09T13:37:54;22.80;63.90
8711;DHT22;4392;47.400;8.062;2022-09-09T13:40:22;22.80;64.20
8711;DHT22;4392;47.400;8.062;2022-09-09T13:42:53;22.50;65.60
8711;DHT22;4392;47.400;8.062;2022-09-09T13:45:22;22.60;67.30
8711;DHT22;4392;47.400;8.062;2022-09-09T13:47:49;22.50;67.40
8711;DHT22;4392;47.400;8.062;2022-09-09T13:52:50;22.40;68.90
8711;DHT22;4392;47.400;8.062;2022-09-09T13:55:17;22.60;68.40
8711;DHT22;4392;47.400;8.062;2022-09-09T13:57:58;22.80;68.20
8711;DHT22;4392;47.400;8.062;2022-09-09T14:00:26;22.90;67.30
8711;DHT22;4392;47.400;8.062;2022-09-09T14:02:52;22.90;66.60
8711;DHT22;4392;47.400;8.062;2022-09-09T14:05:20;23.10;67.10
8711;DHT22;4392;47.400;8.062;2022-09-09T14:07:49;23.20;66.50
8711;DHT22;4392;47.400;8.062;2022-09-09T14:10:16;23.10;66.40
8711;DHT22;4392;47.400;8.062;2022-09-09T14:12:41;23.10;66.30
8711;DHT22;4392;47.400;8.062;2022-09-09T14:15:09;23.20;66.10
8711;DHT22;4392;47.400;8.062;2022-09-09T14:17:35;23.20;65.90
8711;DHT22;4392;47.400;8.062;2022-09-09T14:20:06;23.30;63.40
8711;DHT22;4392;47.400;8.062;2022-09-09T14:22:35;23.20;64.30
8711;DHT22;4392;47.400;8.062;2022-09-09T14:25:01;23.40;64.30
8711;DHT22;4392;47.400;8.062;2022-09-09T14:27:28;23.40;63.80
8711;DHT22;4392;47.400;8.062;2022-09-09T14:29:54;23.10;65.10
8711;DHT22;4392;47.400;8.062;2022-09-09T14:32:23;23.00;70.10
8711;DHT22;4392;47.400;8.062;2022-09-09T14:34:49;22.90;66.50
8711;DHT22;4392;47.400;8.062;2022-09-09T14:37:16;22.90;68.70
8711;DHT22;4392;47.400;8.062;2022-09-09T14:39:43;23.00;65.70
8711;DHT22;4392;47.400;8.062;2022-09-09T14:42:10;23.10;64.90
8711;DHT22;4392;47.400;8.062;2022-09-09T14:44:37;23.00;65.10
8711;DHT22;4392;47.400;8.062;2022-09-09T14:47:06;22.90;66.60
8711;DHT22;4392;47.400;8.062;2022-09-09T14:49:36;22.70;67.20
8711;DHT22;4392;47.400;8.062;2022-09-09T14:52:03;22.60;66.10
8711;DHT22;4392;47.400;8.062;2022-09-09T14:54:31;22.60;66.30
8711;DHT22;4392;47.400;8.062;2022-09-09T14:56:58;22.50;66.60
8711;DHT22;4392;47.400;8.062;2022-09-09T14:59:24;22.60;67.00
8711;DHT22;4392;47.400;8.062;2022-09-09T15:01:50;22.80;66.90
8711;DHT22;4392;47.400;8.062;2022-09-09T15:04:15;23.10;65.40
8711;DHT22;4392;47.400;8.062;2022-09-09T15:06:42;23.30;66.10
8711;DHT22;4392;47.400;8.062;2022-09-09T15:09:10;23.00;65.70
8711;DHT22;4392;47.400;8.062;2022-09-09T15:11:36;22.80;66.50
8711;DHT22;4392;47.400;8.062;2022-09-09T15:14:04;22.90;66.10
8711;DHT22;4392;47.400;8.062;2022-09-09T15:16:30;23.10;67.60
8711;DHT22;4392;47.400;8.062;2022-09-09T15:18:59;23.40;65.20
8711;DHT22;4392;47.400;8.062;2022-09-09T15:21:29;23.70;64.60
8711;DHT22;4392;47.400;8.062;2022-09-09T15:23:55;23.90;64.90
8711;DHT22;4392;47.400;8.062;2022-09-09T15:26:22;24.10;64.50
8711;DHT22;4392;47.400;8.062;2022-09-09T15:28:48;24.10;60.80
8711;DHT22;4392;47.400;8.062;2022-09-09T15:31:22;24.10;61.30
8711;DHT22;4392;47.400;8.062;2022-09-09T15:33:53;24.20;60.80
8711;DHT22;4392;47.400;8.062;2022-09-09T15:36:28;24.30;59.10
8711;DHT22;4392;47.400;8.062;2022-09-09T15:38:54;24.40;58.60
8711;DHT22;4392;47.400;8.062;2022-09-09T15:41:22;24.40;58.50
8711;DHT22;4392;47.400;8.062;2022-09-09T15:43:50;24.50;57.80
8711;DHT22;4392;47.400;8.062;2022-09-09T15:48:56;24.50;55.80
8711;DHT22;4392;47.400;8.062;2022-09-09T15:51:22;24.60;56.10
8711;DHT22;4392;47.400;8.062;2022-09-09T15:53:53;24.60;55.40
8711;DHT22;4392;47.400;8.062;2022-09-09T15:56:19;24.70;54.30
8711;DHT22;4392;47.400;8.062;2022-09-09T15:58:45;24.60;54.00
8711;DHT22;4392;47.400;8.062;2022-09-09T16:01:11;24.30;54.30
8711;DHT22;4392;47.400;8.062;2022-09-09T16:03:40;24.20;55.80
8711;DHT22;4392;47.400;8.062;2022-09-09T16:06:16;24.10;55.70
8711;DHT22;4392;47.400;8.062;2022-09-09T16:08:44;24.00;55.90
8711;DHT22;4392;47.400;8.062;2022-09-09T16:11:16;23.90;56.40
8711;DHT22;4392;47.400;8.062;2022-09-09T16:13:52;23.70;55.70
8711;DHT22;4392;47.400;8.062;2022-09-09T16:16:20;23.50;55.90
8711;DHT22;4392;47.400;8.062;2022-09-09T16:19:09;23.40;57.30
8711;DHT22;4392;47.400;8.062;2022-09-09T16:21:38;23.40;57.50
8711;DHT22;4392;47.400;8.062;2022-09-09T16:24:06;23.30;59.30
8711;DHT22;4392;47.400;8.062;2022-09-09T16:26:33;23.30;58.50
8711;DHT22;4392;47.400;8.062;2022-09-09T16:29:05;23.10;62.90
8711;DHT22;4392;47.400;8.062;2022-09-09T16:31:31;22.50;64.40
8711;DHT22;4392;47.400;8.062;2022-09-09T16:33:58;22.40;68.00
8711;DHT22;4392;47.400;8.062;2022-09-09T16:36:26;22.20;69.50
8711;DHT22;4392;47.400;8.062;2022-09-09T16:38:56;22.20;70.10
8711;DHT22;4392;47.400;8.062;2022-09-09T16:41:23;22.10;72.90
8711;DHT22;4392;47.400;8.062;2022-09-09T16:44:08;21.70;74.50
8711;DHT22;4392;47.400;8.062;2022-09-09T16:46:37;21.50;73.50
8711;DHT22;4392;47.400;8.062;2022-09-09T16:49:06;21.20;75.80
8711;DHT22;4392;47.400;8.062;2022-09-09T16:51:35;21.10;76.20
8711;DHT22;4392;47.400;8.062;2022-09-09T16:54:03;21.00;76.80
8711;DHT22;4392;47.400;8.062;2022-09-09T16:56:31;21.00;77.60
8711;DHT22;4392;47.400;8.062;2022-09-09T16:59:01;21.20;74.70
8711;DHT22;4392;47.400;8.062;2022-09-09T17:01:30;21.00;72.60
8711;DHT22;4392;47.400;8.062;2022-09-09T17:04:04;21.10;73.10
8711;DHT22;4392;47.400;8.062;2022-09-09T17:06:31;21.00;73.30
8711;DHT22;4392;47.400;8.062;2022-09-09T17:08:59;21.10;75.10
8711;DHT22;4392;47.400;8.062;2022-09-09T17:11:27;20.90;76.00
8711;DHT22;4392;47.400;8.062;2022-09-09T17:13:54;20.80;76.70
8711;DHT22;4392;47.400;8.062;2022-09-09T17:16:31;20.80;77.00
8711;DHT22;4392;47.400;8.062;2022-09-09T17:18:57;20.80;81.00
8711;DHT22;4392;47.400;8.062;2022-09-09T17:21:28;21.10;81.60
8711;DHT22;4392;47.400;8.062;2022-09-09T17:23:54;21.40;83.10
8711;DHT22;4392;47.400;8.062;2022-09-09T17:26:30;21.60;83.40
8711;DHT22;4392;47.400;8.062;2022-09-09T17:28:57;21.70;82.50
8711;DHT22;4392;47.400;8.062;2022-09-09T17:31:24;21.70;82.10
8711;DHT22;4392;47.400;8.062;2022-09-09T17:33:51;21.80;81.90
8711;DHT22;4392;47.400;8.062;2022-09-09T17:36:26;21.80;81.20
8711;DHT22;4392;47.400;8.062;2022-09-09T17:38:53;21.80;81.10
8711;DHT22;4392;47.400;8.062;2022-09-09T17:41:24;21.80;78.30
8711;DHT22;4392;47.400;8.062;2022-09-09T17:43:50;21.70;79.10
8711;DHT22;4392;47.400;8.062;2022-09-09T17:48:45;21.70;79.10
8711;DHT22;4392;47.400;8.062;2022-09-09T17:51:14;21.70;79.80
8711;DHT22;4392;47.400;8.062;2022-09-09T17:53:43;21.70;80.90
8711;DHT22;4392;47.400;8.062;2022-09-09T17:56:13;21.70;80.40
8711;DHT22;4392;47.400;8.062;2022-09-09T17:58:40;21.70;80.70
8711;DHT22;4392;47.400;8.062;2022-09-09T18:01:11;21.80;80.50
8711;DHT22;4392;47.400;8.062;2022-09-09T18:03:38;21.80;80.50
8711;DHT22;4392;47.400;8.062;2022-09-09T18:06:07;21.80;80.30
8711;DHT22;4392;47.400;8.062;2022-09-09T18:08:34;21.80;80.10
8711;DHT22;4392;47.400;8.062;2022-09-09T18:11:01;21.90;80.10
8711;DHT22;4392;47.400;8.062;2022-09-09T18:13:28;21.90;80.30
8711;DHT22;4392;47.400;8.062;2022-09-09T18:15:54;21.90;80.60
8711;DHT22;4392;47.400;8.062;2022-09-09T18:18:20;21.90;80.40
8711;DHT22;4392;47.400;8.062;2022-09-09T18:20:59;21.80;80.50
8711;DHT22;4392;47.400;8.062;2022-09-09T18:23:27;21.80;80.60
8711;DHT22;4392;47.400;8.062;2022-09-09T18:25:53;21.80;80.80
8711;DHT22;4392;47.400;8.062;2022-09-09T18:28:19;21.90;81.10
8711;DHT22;4392;47.400;8.062;2022-09-09T18:30:45;21.90;81.30
8711;DHT22;4392;47.400;8.062;2022-09-09T18:33:11;21.80;81.40
8711;DHT22;4392;47.400;8.062;2022-09-09T18:35:37;21.90;81.60
8711;DHT22;4392;47.400;8.062;2022-09-09T18:38:03;21.90;81.90
8711;DHT22;4392;47.400;8.062;2022-09-09T18:40:32;21.90;83.20